createdAt,value
2023-05-10T00:00:54.918Z,4.70
2023-05-10T00:01:54.947Z,6.20
2023-05-10T00:02:55.020Z,5.60
2023-05-10T00:03:55.880Z,7.60
2023-05-10T00:04:54.949Z,5.30
2023-05-10T00:05:54.913Z,5.50
2023-05-10T00:06:54.881Z,4.60
2023-05-10T00:07:54.870Z,4.70
2023-05-10T00:08:55.792Z,6.40
2023-05-10T00:09:54.843Z,6.30
2023-05-10T00:10:54.786Z,5.60
2023-05-10T00:11:54.797Z,5.80
2023-05-10T00:12:54.892Z,6.20
2023-05-10T00:13:55.681Z,6.20
2023-05-10T00:14:54.803Z,5.60
2023-05-10T00:15:54.742Z,5.00
2023-05-10T00:16:54.933Z,5.00
2023-05-10T00:17:54.773Z,6.70
2023-05-10T00:18:54.719Z,6.10
2023-05-10T00:19:55.601Z,5.00
2023-05-10T00:20:54.671Z,7.90
2023-05-10T00:21:54.696Z,6.60
2023-05-10T00:22:54.708Z,5.20
2023-05-10T00:23:54.632Z,5.40
2023-05-10T00:24:54.640Z,6.40
2023-05-10T00:25:55.538Z,4.30
2023-05-10T00:26:54.714Z,7.30
2023-05-10T00:27:54.589Z,6.70
2023-05-10T00:28:54.565Z,7.10
2023-05-10T00:29:54.636Z,5.90
2023-05-10T00:30:55.468Z,6.40
2023-05-10T00:31:54.562Z,6.20
2023-05-10T00:32:54.530Z,6.60
2023-05-10T00:33:54.551Z,5.20
2023-05-10T00:34:54.513Z,4.90
2023-05-10T00:35:55.437Z,6.30
2023-05-10T00:36:54.589Z,8.80
2023-05-10T00:37:54.453Z,6.30
2023-05-10T00:38:54.458Z,6.20
2023-05-10T00:39:54.505Z,5.50
2023-05-10T00:40:54.435Z,5.20
2023-05-10T00:41:55.482Z,5.60
2023-05-10T00:42:54.393Z,5.40
2023-05-10T00:43:54.372Z,6.20
2023-05-10T00:44:54.484Z,6.50
2023-05-10T00:45:54.403Z,4.90
2023-05-10T00:46:54.351Z,5.30
2023-05-10T00:47:55.357Z,6.60
2023-05-10T00:48:54.304Z,4.90
2023-05-10T00:49:54.320Z,6.60
2023-05-10T00:50:54.305Z,6.10
2023-05-10T00:51:54.327Z,6.00
2023-05-10T00:52:55.175Z,5.40
2023-05-10T00:53:54.299Z,7.20
2023-05-10T00:54:54.235Z,7.00
2023-05-10T00:55:54.270Z,7.80
2023-05-10T00:56:54.215Z,7.20
2023-05-10T00:57:55.123Z,4.70
2023-05-10T00:58:54.167Z,7.90
2023-05-10T00:59:54.190Z,5.90
2023-05-10T01:00:54.137Z,6.20
2023-05-10T01:01:54.196Z,5.30
2023-05-10T01:02:54.224Z,6.20
2023-05-10T01:03:55.187Z,7.70
2023-05-10T01:04:54.133Z,4.90
2023-05-10T01:05:54.084Z,5.40
2023-05-10T01:06:54.078Z,6.80
2023-05-10T01:07:54.124Z,8.10
2023-05-10T01:08:55.041Z,8.20
2023-05-10T01:09:54.050Z,5.90
2023-05-10T01:10:54.034Z,6.30
2023-05-10T01:11:54.037Z,7.10
2023-05-10T01:12:54.007Z,10.80
2023-05-10T01:13:54.986Z,6.50
2023-05-10T01:14:53.988Z,5.30
2023-05-10T01:15:53.994Z,7.20
2023-05-10T01:16:53.973Z,6.10
2023-05-10T01:17:53.995Z,6.80
2023-05-10T01:18:53.964Z,6.60
2023-05-10T01:19:54.870Z,5.40
2023-05-10T01:20:55.599Z,6.80
2023-05-10T01:21:53.935Z,5.70
2023-05-10T01:22:53.920Z,5.50
2023-05-10T01:23:53.842Z,6.10
2023-05-10T01:24:54.788Z,7.70
2023-05-10T01:25:53.856Z,5.70
2023-05-10T01:26:53.812Z,6.50
2023-05-10T01:27:53.880Z,5.60
2023-05-10T01:28:53.791Z,7.40
2023-05-10T01:30:21.775Z,7.40
2023-05-10T01:30:55.820Z,5.90
2023-05-10T01:31:53.749Z,5.80
2023-05-10T01:32:53.843Z,6.90
2023-05-10T01:33:53.765Z,7.00
2023-05-10T01:34:53.766Z,5.80
2023-05-10T01:35:54.682Z,6.00
2023-05-10T01:36:53.713Z,7.00
2023-05-10T01:37:53.695Z,6.20
2023-05-10T01:38:53.708Z,7.40
2023-05-10T01:39:53.652Z,5.10
2023-05-10T01:40:53.643Z,7.40
2023-05-10T01:41:54.555Z,5.60
2023-05-10T01:42:53.632Z,8.10
2023-05-10T01:43:53.634Z,6.10
2023-05-10T01:44:53.607Z,5.90
2023-05-10T01:45:53.579Z,6.70
2023-05-10T01:46:54.529Z,5.50
2023-05-10T01:47:53.592Z,5.90
2023-05-10T01:48:53.543Z,5.20
2023-05-10T01:49:53.535Z,7.90
2023-05-10T01:50:53.500Z,8.90
2023-05-10T01:51:54.419Z,6.30
2023-05-10T01:52:53.523Z,7.90
2023-05-10T01:53:53.442Z,6.10
2023-05-10T01:54:53.484Z,5.50
2023-05-10T01:55:53.518Z,6.20
2023-05-10T01:56:53.427Z,6.30
2023-05-10T01:57:54.362Z,8.40
2023-05-10T01:58:53.396Z,6.10
2023-05-10T01:59:53.431Z,7.70
2023-05-10T02:00:53.511Z,7.60
2023-05-10T02:01:53.346Z,6.20
2023-05-10T02:02:53.388Z,8.10
2023-05-10T02:03:54.329Z,5.40
2023-05-10T02:04:53.361Z,6.60
2023-05-10T02:05:53.324Z,6.10
2023-05-10T02:06:53.311Z,7.30
2023-05-10T02:07:53.353Z,6.70
2023-05-10T02:08:53.289Z,6.50
2023-05-10T02:09:54.234Z,7.20
2023-05-10T02:10:53.345Z,5.90
2023-05-10T02:11:53.277Z,6.30
2023-05-10T02:12:53.287Z,6.30
2023-05-10T02:13:53.201Z,5.80
2023-05-10T02:14:54.210Z,6.20
2023-05-10T02:15:53.236Z,7.00
2023-05-10T02:16:53.221Z,7.20
2023-05-10T02:17:53.197Z,5.60
2023-05-10T02:18:53.180Z,7.60
2023-05-10T02:19:53.185Z,5.80
2023-05-10T02:20:54.039Z,5.50
2023-05-10T02:21:53.148Z,6.20
2023-05-10T02:22:53.108Z,5.50
2023-05-10T02:23:53.099Z,8.40
2023-05-10T02:24:53.123Z,6.30
2023-05-10T02:25:54.050Z,5.60
2023-05-10T02:26:53.031Z,5.90
2023-05-10T02:27:53.021Z,6.40
2023-05-10T02:28:53.026Z,6.40
2023-05-10T02:29:53.025Z,7.10
2023-05-10T02:30:53.001Z,5.50
2023-05-10T02:31:53.963Z,6.90
2023-05-10T02:32:53.012Z,6.50
2023-05-10T02:33:53.575Z,5.90
2023-05-10T02:34:53.069Z,7.60
2023-05-10T02:35:52.933Z,7.30
2023-05-10T02:36:53.827Z,6.10
2023-05-10T02:37:52.987Z,6.40
2023-05-10T02:38:52.921Z,5.60
2023-05-10T02:39:52.862Z,6.50
2023-05-10T02:40:52.888Z,6.70
2023-05-10T02:41:52.874Z,5.20
2023-05-10T02:42:53.772Z,7.20
2023-05-10T02:43:52.914Z,5.70
2023-05-10T02:44:52.831Z,6.90
2023-05-10T02:45:52.907Z,6.80
2023-05-10T02:46:52.778Z,6.50
2023-05-10T02:47:53.745Z,5.80
2023-05-10T02:48:52.754Z,6.30
2023-05-10T02:49:52.776Z,5.60
2023-05-10T02:50:52.771Z,5.50
2023-05-10T02:51:52.699Z,6.70
2023-05-10T02:52:53.348Z,5.30
2023-05-10T02:53:53.666Z,5.80
2023-05-10T02:54:52.706Z,6.20
2023-05-10T02:55:52.726Z,7.60
2023-05-10T02:56:52.637Z,6.90
2023-05-10T02:57:52.641Z,5.20
2023-05-10T02:58:52.637Z,5.80
2023-05-10T02:59:53.593Z,6.80
2023-05-10T03:00:52.598Z,8.10
2023-05-10T03:01:52.697Z,8.70
2023-05-10T03:02:52.700Z,6.90
2023-05-10T03:03:52.550Z,8.00
2023-05-10T03:04:52.539Z,5.20
2023-05-10T03:05:53.465Z,8.20
2023-05-10T03:06:52.756Z,7.00
2023-05-10T03:07:52.528Z,6.10
2023-05-10T03:08:52.492Z,6.60
2023-05-10T03:09:53.460Z,5.50
2023-05-10T03:10:53.449Z,5.40
2023-05-10T03:11:52.491Z,7.00
2023-05-10T03:12:52.496Z,7.20
2023-05-10T03:13:52.444Z,5.80
2023-05-10T03:14:52.551Z,6.60
2023-05-10T03:15:53.386Z,6.20
2023-05-10T03:16:52.445Z,5.60
2023-05-10T03:17:52.467Z,7.70
2023-05-10T03:18:52.373Z,5.80
2023-05-10T03:19:52.349Z,4.60
2023-05-10T03:20:52.396Z,6.40
2023-05-10T03:21:53.314Z,6.80
2023-05-10T03:22:52.312Z,8.20
2023-05-10T03:23:52.324Z,5.00
2023-05-10T03:24:52.315Z,6.40
2023-05-10T03:25:52.332Z,4.30
2023-05-10T03:26:52.289Z,5.80
2023-05-10T03:27:53.196Z,6.60
2023-05-10T03:28:52.266Z,6.60
2023-05-10T03:29:52.266Z,4.30
2023-05-10T03:30:52.202Z,6.40
2023-05-10T03:31:52.350Z,5.90
2023-05-10T03:32:52.216Z,7.00
2023-05-10T03:33:53.105Z,8.80
2023-05-10T03:34:52.171Z,12.50
2023-05-10T03:35:52.160Z,5.20
2023-05-10T03:36:52.224Z,5.40
2023-05-10T03:37:52.094Z,6.60
2023-05-10T03:38:52.145Z,7.40
2023-05-10T03:39:53.029Z,8.40
2023-05-10T03:40:52.238Z,4.80
2023-05-10T03:41:52.071Z,6.30
2023-05-10T03:42:52.065Z,5.50
2023-05-10T03:43:52.076Z,5.30
2023-05-10T03:44:52.036Z,8.30
2023-05-10T03:45:52.953Z,7.00
2023-05-10T03:46:52.032Z,5.30
2023-05-10T03:47:52.035Z,5.90
2023-05-10T03:48:52.010Z,5.70
2023-05-10T03:49:52.021Z,7.30
2023-05-10T03:50:52.869Z,5.30
2023-05-10T03:51:51.926Z,6.50
2023-05-10T03:52:54.577Z,9.30
2023-05-10T03:53:51.901Z,7.60
2023-05-10T03:54:52.081Z,7.00
2023-05-10T03:55:51.916Z,6.00
2023-05-10T03:56:52.869Z,7.30
2023-05-10T03:57:51.929Z,8.70
2023-05-10T03:58:51.869Z,7.20
2023-05-10T03:59:51.954Z,5.90
2023-05-10T04:00:51.827Z,6.00
2023-05-10T04:01:51.819Z,9.20
2023-05-10T04:02:52.823Z,7.20
2023-05-10T04:03:51.855Z,6.10
2023-05-10T04:04:51.763Z,5.10
2023-05-10T04:05:51.796Z,6.60
2023-05-10T04:06:51.759Z,7.00
2023-05-10T04:07:52.685Z,10.10
2023-05-10T04:08:51.751Z,7.40
2023-05-10T04:09:52.000Z,6.80
2023-05-10T04:10:51.704Z,7.70
2023-05-10T04:11:51.666Z,6.40
2023-05-10T04:12:52.699Z,6.20
2023-05-10T04:13:51.702Z,6.70
2023-05-10T04:14:51.710Z,5.70
2023-05-10T04:15:51.611Z,6.80
2023-05-10T04:16:51.712Z,5.10
2023-05-10T04:17:51.621Z,6.20
2023-05-10T04:18:52.616Z,6.10
2023-05-10T04:19:51.560Z,6.80
2023-05-10T04:20:51.578Z,7.10
2023-05-10T04:21:51.571Z,6.50
2023-05-10T04:22:51.527Z,6.50
2023-05-10T04:23:52.473Z,4.70
2023-05-10T04:24:51.539Z,6.10
2023-05-10T04:25:51.493Z,5.50
2023-05-10T04:26:51.592Z,7.20
2023-05-10T04:27:51.452Z,6.60
2023-05-10T04:28:51.560Z,7.40
2023-05-10T04:29:52.436Z,6.10
2023-05-10T04:30:51.436Z,5.20
2023-05-10T04:31:51.470Z,6.60
2023-05-10T04:32:51.458Z,4.80
2023-05-10T04:33:51.421Z,8.80
2023-05-10T04:34:51.397Z,4.30
2023-05-10T04:35:52.290Z,6.60
2023-05-10T04:36:51.392Z,6.80
2023-05-10T04:37:51.318Z,6.20
2023-05-10T04:38:51.362Z,11.50
2023-05-10T04:39:51.531Z,6.40
2023-05-10T04:40:51.300Z,4.70
2023-05-10T04:41:52.271Z,4.50
2023-05-10T04:42:51.308Z,6.90
2023-05-10T04:43:51.255Z,4.70
2023-05-10T04:44:51.307Z,6.20
2023-05-10T04:45:51.330Z,5.40
2023-05-10T04:46:51.384Z,6.40
2023-05-10T04:47:52.309Z,5.70
2023-05-10T04:48:51.363Z,4.50
2023-05-10T04:49:51.230Z,5.70
2023-05-10T04:50:51.210Z,6.30
2023-05-10T04:51:51.240Z,5.90
2023-05-10T04:52:52.280Z,5.00
2023-05-10T04:54:04.708Z,6.80
2023-05-10T04:54:52.690Z,5.90
2023-05-10T04:55:51.095Z,6.90
2023-05-10T04:56:51.105Z,6.70
2023-05-10T04:57:51.080Z,7.00
2023-05-10T04:58:52.040Z,7.10
2023-05-10T04:59:51.063Z,8.70
2023-05-10T05:00:51.032Z,9.50
2023-05-10T05:01:51.041Z,8.70
2023-05-10T05:02:51.115Z,7.00
2023-05-10T05:03:52.008Z,6.20
2023-05-10T05:04:51.002Z,5.60
2023-05-10T05:05:50.992Z,4.50
2023-05-10T05:06:53.655Z,7.40
2023-05-10T05:07:50.965Z,8.30
2023-05-10T05:08:51.901Z,5.90
2023-05-10T05:09:50.959Z,7.60
2023-05-10T05:10:50.937Z,4.20
2023-05-10T05:11:50.899Z,6.60
2023-05-10T05:12:50.905Z,4.90
2023-05-10T05:13:50.891Z,6.80
2023-05-10T05:14:51.802Z,5.80
2023-05-10T05:15:50.917Z,6.80
2023-05-10T05:16:50.806Z,5.90
2023-05-10T05:17:50.888Z,5.00
2023-05-10T05:18:50.838Z,6.90
2023-05-10T05:19:50.806Z,7.60
2023-05-10T05:20:51.740Z,5.00
2023-05-10T05:21:50.865Z,6.70
2023-05-10T05:22:50.776Z,6.90
2023-05-10T05:23:50.727Z,8.40
2023-05-10T05:24:50.732Z,8.50
2023-05-10T05:25:50.678Z,5.10
2023-05-10T05:26:51.649Z,6.30
2023-05-10T05:27:50.708Z,6.50
2023-05-10T05:28:50.683Z,6.90
2023-05-10T05:29:50.674Z,8.40
2023-05-10T05:30:50.663Z,4.30
2023-05-10T05:31:51.040Z,7.60
2023-05-10T05:32:51.753Z,5.20
2023-05-10T05:33:50.632Z,3.70
2023-05-10T05:34:50.617Z,6.20
2023-05-10T05:35:50.605Z,4.80
2023-05-10T05:36:50.602Z,5.70
2023-05-10T05:37:50.650Z,6.30
2023-05-10T05:38:51.496Z,4.60
2023-05-10T05:39:50.541Z,4.90
2023-05-10T05:40:50.599Z,9.10
2023-05-10T05:41:50.603Z,7.80
2023-05-10T05:42:50.541Z,7.00
2023-05-10T05:43:51.418Z,6.90
2023-05-10T05:44:50.492Z,4.20
2023-05-10T05:45:50.585Z,5.30
2023-05-10T05:46:50.461Z,7.50
2023-05-10T05:47:50.462Z,4.10
2023-05-10T05:48:50.493Z,7.10
2023-05-10T05:49:51.341Z,6.20
2023-05-10T05:50:50.424Z,6.10
2023-05-10T05:51:50.452Z,4.30
2023-05-10T05:52:50.371Z,4.60
2023-05-10T05:53:50.441Z,3.90
2023-05-10T05:54:51.291Z,5.60
2023-05-10T05:55:50.396Z,4.50
2023-05-10T05:56:50.405Z,6.30
2023-05-10T05:57:50.346Z,8.40
2023-05-10T05:58:50.294Z,4.20
2023-05-10T05:59:51.386Z,4.80
2023-05-10T06:00:50.359Z,5.00
2023-05-10T06:01:50.262Z,11.40
2023-05-10T06:02:50.416Z,20.40
2023-05-10T06:03:51.903Z,57.60
2023-05-10T06:04:51.227Z,41.00
2023-05-10T06:05:50.202Z,13.50
2023-05-10T06:06:50.214Z,5.70
2023-05-10T06:07:50.158Z,5.30
2023-05-10T06:08:50.862Z,4.80
2023-05-10T06:09:51.138Z,6.20
2023-05-10T06:10:50.150Z,6.40
2023-05-10T06:11:50.171Z,12.00
2023-05-10T06:12:50.167Z,12.70
2023-05-10T06:13:50.132Z,13.50
2023-05-10T06:14:51.039Z,9.50
2023-05-10T06:15:50.084Z,8.60
2023-05-10T06:16:50.111Z,6.10
2023-05-10T06:17:50.077Z,10.80
2023-05-10T06:18:50.096Z,8.50
2023-05-10T06:19:50.026Z,8.90
2023-05-10T06:20:51.053Z,7.20
2023-05-10T06:21:51.234Z,4.80
2023-05-10T06:22:49.994Z,7.50
2023-05-10T06:23:50.929Z,5.90
2023-05-10T06:24:49.957Z,7.70
2023-05-10T06:25:51.256Z,6.00
2023-05-10T06:26:49.979Z,9.10
2023-05-10T06:27:52.883Z,11.60
2023-05-10T06:28:49.885Z,21.30
2023-05-10T06:29:52.203Z,19.80
2023-05-10T06:30:51.359Z,60.70
2023-05-10T06:31:50.859Z,41.60
2023-05-10T06:32:49.873Z,18.80
2023-05-10T06:33:49.870Z,7.70
2023-05-10T06:34:49.820Z,6.70
2023-05-10T06:35:49.837Z,8.40
2023-05-10T06:36:49.793Z,6.10
2023-05-10T06:37:50.840Z,7.60
2023-05-10T06:38:49.827Z,4.40
2023-05-10T06:39:49.778Z,6.10
2023-05-10T06:40:49.801Z,7.00
2023-05-10T06:41:49.766Z,4.50
2023-05-10T06:42:50.663Z,5.40
2023-05-10T06:43:49.712Z,4.50
2023-05-10T06:44:49.796Z,4.20
2023-05-10T06:45:49.696Z,4.80
2023-05-10T06:46:49.683Z,4.50
2023-05-10T06:47:49.676Z,7.20
2023-05-10T06:48:50.567Z,7.50
2023-05-10T06:49:49.724Z,5.10
2023-05-10T06:50:49.616Z,4.40
2023-05-10T06:51:49.634Z,3.70
2023-05-10T06:52:51.175Z,4.10
2023-05-10T06:53:50.518Z,4.70
2023-05-10T06:54:49.657Z,4.50
2023-05-10T06:55:50.492Z,5.60
2023-05-10T06:56:49.555Z,5.80
2023-05-10T06:57:49.536Z,3.10
2023-05-10T06:58:49.600Z,3.30
2023-05-10T06:59:50.573Z,3.60
2023-05-10T07:00:49.527Z,3.90
2023-05-10T07:01:49.531Z,3.60
2023-05-10T07:02:50.447Z,4.60
2023-05-10T07:03:49.503Z,2.70
2023-05-10T07:04:49.564Z,4.30
2023-05-10T07:05:50.424Z,6.70
2023-05-10T07:06:49.443Z,3.30
2023-05-10T07:07:49.442Z,7.10
2023-05-10T07:08:49.442Z,4.90
2023-05-10T07:09:49.392Z,3.30
2023-05-10T07:10:50.335Z,3.70
2023-05-10T07:11:49.400Z,4.60
2023-05-10T07:12:49.429Z,5.30
2023-05-10T07:13:49.326Z,3.70
2023-05-10T07:14:49.279Z,6.10
2023-05-10T07:15:50.311Z,5.20
2023-05-10T07:16:50.243Z,3.80
2023-05-10T07:17:49.370Z,4.40
2023-05-10T07:18:49.339Z,4.30
2023-05-10T07:19:49.307Z,5.50
2023-05-10T07:20:49.221Z,4.20
2023-05-10T07:21:49.235Z,5.40
2023-05-10T07:22:50.210Z,5.50
2023-05-10T07:23:49.214Z,5.50
2023-05-10T07:24:49.243Z,4.70
2023-05-10T07:25:49.158Z,3.50
2023-05-10T07:26:49.143Z,4.20
2023-05-10T07:27:50.081Z,4.90
2023-05-10T07:28:49.121Z,5.40
2023-05-10T07:29:49.202Z,3.50
2023-05-10T07:30:49.153Z,2.80
2023-05-10T07:31:49.251Z,3.80
2023-05-10T07:32:49.227Z,4.70
2023-05-10T07:33:50.035Z,3.00
2023-05-10T07:34:49.156Z,3.20
2023-05-10T07:35:49.103Z,3.90
2023-05-10T07:36:49.012Z,3.60
2023-05-10T07:37:49.068Z,3.60
2023-05-10T07:38:49.954Z,3.40
2023-05-10T07:39:48.951Z,5.60
2023-05-10T07:40:49.963Z,3.10
2023-05-10T07:41:49.003Z,5.50
2023-05-10T07:42:48.973Z,4.40
2023-05-10T07:43:48.986Z,4.00
2023-05-10T07:44:49.841Z,3.60
2023-05-10T07:45:48.978Z,6.40
2023-05-10T07:46:48.930Z,4.50
2023-05-10T07:47:48.890Z,3.30
2023-05-10T07:48:48.916Z,4.10
2023-05-10T07:49:49.821Z,4.00
2023-05-10T07:50:49.097Z,3.80
2023-05-10T07:51:48.917Z,3.90
2023-05-10T07:52:48.844Z,6.70
2023-05-10T07:53:48.848Z,3.40
2023-05-10T07:54:49.754Z,5.20
2023-05-10T07:55:48.820Z,3.30
2023-05-10T07:56:48.728Z,3.10
2023-05-10T07:57:48.726Z,4.80
2023-05-10T07:58:48.772Z,3.70
2023-05-10T07:59:49.660Z,3.70
2023-05-10T08:00:48.691Z,3.00
2023-05-10T08:01:48.727Z,7.20
2023-05-10T08:02:48.792Z,3.50
2023-05-10T08:03:48.950Z,8.00
2023-05-10T08:04:49.626Z,4.50
2023-05-10T08:05:48.653Z,3.80
2023-05-10T08:06:48.878Z,5.90
2023-05-10T08:07:48.633Z,5.50
2023-05-10T08:08:48.637Z,5.90
2023-05-10T08:09:49.651Z,27.30
2023-05-10T08:10:48.654Z,92.60
2023-05-10T08:11:48.590Z,291.20
2023-05-10T08:12:48.544Z,124.70
2023-05-10T08:13:48.528Z,11.50
2023-05-10T08:14:48.560Z,5.10
2023-05-10T08:15:49.692Z,5.30
2023-05-10T08:16:49.454Z,4.10
2023-05-10T08:17:48.556Z,4.40
2023-05-10T08:18:48.578Z,4.20
2023-05-10T08:19:48.499Z,3.70
2023-05-10T08:20:48.447Z,3.90
2023-05-10T08:21:49.416Z,4.70
2023-05-10T08:22:50.010Z,5.90
2023-05-10T08:23:48.485Z,3.10
2023-05-10T08:24:48.524Z,15.10
2023-05-10T08:25:48.380Z,80.00
2023-05-10T08:26:48.386Z,94.30
2023-05-10T08:27:49.283Z,287.40
2023-05-10T08:28:48.347Z,140.50
2023-05-10T08:29:50.493Z,184.80
2023-05-10T08:30:48.356Z,124.00
2023-05-10T08:31:48.549Z,17.60
2023-05-10T08:32:48.386Z,7.50
2023-05-10T08:33:49.187Z,4.50
2023-05-10T08:34:48.237Z,2.40
2023-05-10T08:35:48.249Z,4.20
2023-05-10T08:36:48.307Z,6.20
2023-05-10T08:38:45.693Z,1.70
2023-05-10T08:39:46.648Z,3.50
2023-05-10T08:40:45.682Z,4.60
2023-05-10T08:41:45.686Z,2.80
2023-05-10T08:42:45.665Z,4.60
2023-05-10T08:43:45.653Z,3.10
2023-05-10T08:44:46.307Z,5.00
2023-05-10T08:45:46.559Z,4.60
2023-05-10T08:46:45.633Z,9.00
2023-05-10T08:47:45.656Z,4.30
2023-05-10T08:48:45.579Z,4.40
2023-05-10T08:49:45.551Z,4.20
2023-05-10T08:50:45.642Z,8.00
2023-05-10T08:51:46.435Z,4.30
2023-05-10T08:52:45.528Z,2.70
2023-05-10T08:53:45.512Z,5.70
2023-05-10T08:54:45.519Z,5.70
2023-05-10T08:55:45.485Z,3.40
2023-05-10T08:56:46.142Z,5.20
2023-05-10T08:57:46.424Z,2.70
2023-05-10T08:58:45.410Z,3.20
2023-05-10T08:59:45.457Z,3.00
2023-05-10T09:00:45.433Z,1.70
2023-05-10T09:01:45.399Z,4.80
2023-05-10T09:02:45.387Z,2.70
2023-05-10T09:03:45.426Z,4.10
2023-05-10T09:04:45.434Z,3.20
2023-05-10T09:05:45.341Z,2.80
2023-05-10T09:06:45.399Z,2.90
2023-05-10T09:07:45.323Z,3.10
2023-05-10T09:08:45.368Z,2.50
2023-05-10T09:09:46.243Z,3.30
2023-05-10T09:10:45.268Z,3.50
2023-05-10T09:11:45.272Z,4.50
2023-05-10T09:12:45.297Z,4.20
2023-05-10T09:13:45.274Z,4.80
2023-05-10T09:14:46.228Z,2.40
2023-05-10T09:15:45.607Z,3.20
2023-05-10T09:16:45.258Z,3.40
2023-05-10T09:17:45.233Z,4.00
2023-05-10T09:18:45.225Z,5.20
2023-05-10T09:19:45.198Z,3.90
2023-05-10T09:20:46.106Z,3.50
2023-05-10T09:21:45.142Z,2.80
2023-05-10T09:22:45.139Z,4.40
2023-05-10T09:23:47.364Z,3.20
2023-05-10T09:24:45.113Z,7.60
2023-05-10T09:25:46.044Z,4.60
2023-05-10T09:26:45.071Z,5.30
2023-05-10T09:27:45.114Z,5.20
2023-05-10T09:28:45.031Z,2.60
2023-05-10T09:29:45.059Z,2.50
2023-05-10T09:30:45.363Z,4.30
2023-05-10T09:31:46.003Z,4.10
2023-05-10T09:32:45.041Z,4.10
2023-05-10T09:33:44.977Z,3.70
2023-05-10T09:34:45.084Z,4.10
2023-05-10T09:35:45.046Z,2.30
2023-05-10T09:36:44.932Z,5.30
2023-05-10T09:37:45.932Z,5.40
2023-05-10T09:38:44.941Z,3.40
2023-05-10T09:39:44.924Z,2.70
2023-05-10T09:40:44.889Z,5.10
2023-05-10T09:41:44.956Z,3.70
2023-05-10T09:42:44.877Z,4.70
2023-05-10T09:43:45.800Z,4.80
2023-05-10T09:44:44.858Z,3.70
2023-05-10T09:45:44.840Z,2.40
2023-05-10T09:46:44.858Z,4.20
2023-05-10T09:47:44.892Z,4.80
2023-05-10T09:48:46.744Z,5.50
2023-05-10T09:49:44.816Z,6.80
2023-05-10T09:50:44.772Z,4.60
2023-05-10T09:51:44.767Z,3.60
2023-05-10T09:52:44.742Z,3.30
2023-05-10T09:53:45.672Z,3.90
2023-05-10T09:54:44.724Z,3.30
2023-05-10T09:55:44.729Z,3.70
2023-05-10T09:56:44.725Z,6.00
2023-05-10T09:57:44.709Z,4.40
2023-05-10T09:58:44.682Z,3.30
2023-05-10T09:59:45.570Z,3.60
2023-05-10T10:00:44.694Z,5.30
2023-05-10T10:01:44.744Z,3.50
2023-05-10T10:02:45.308Z,2.30
2023-05-10T10:03:44.774Z,3.30
2023-05-10T10:04:44.640Z,3.30
2023-05-10T10:05:45.576Z,4.20
2023-05-10T10:06:44.564Z,2.40
2023-05-10T10:07:44.577Z,4.10
2023-05-10T10:08:44.602Z,3.70
2023-05-10T10:09:44.550Z,6.40
2023-05-10T10:10:44.530Z,2.40
2023-05-10T10:11:45.496Z,2.70
2023-05-10T10:12:44.848Z,3.80
2023-05-10T10:13:44.541Z,3.40
2023-05-10T10:14:44.546Z,3.20
2023-05-10T10:15:44.498Z,3.50
2023-05-10T10:16:59.577Z,2.30
2023-05-10T10:17:45.982Z,3.60
2023-05-10T10:18:44.469Z,7.70
2023-05-10T10:19:44.418Z,3.30
2023-05-10T10:20:44.420Z,3.30
2023-05-10T10:21:44.399Z,5.00
2023-05-10T10:22:45.426Z,4.50
2023-05-10T10:23:44.363Z,5.80
2023-05-10T10:24:44.484Z,3.50
2023-05-10T10:25:44.329Z,4.50
2023-05-10T10:26:44.398Z,3.30
2023-05-10T10:27:45.251Z,3.50
2023-05-10T10:28:44.989Z,3.50
2023-05-10T10:29:44.313Z,3.70
2023-05-10T10:30:44.262Z,5.20
2023-05-10T10:31:44.382Z,2.10
2023-05-10T10:32:44.388Z,3.30
2023-05-10T10:33:46.881Z,8.40
2023-05-10T10:34:44.231Z,4.40
2023-05-10T10:35:44.185Z,4.40
2023-05-10T10:36:44.244Z,2.70
2023-05-10T10:37:44.192Z,2.40
2023-05-10T10:38:44.222Z,3.30
2023-05-10T10:39:45.127Z,3.80
2023-05-10T10:40:44.168Z,3.70
2023-05-10T10:41:44.183Z,4.60
2023-05-10T10:42:44.138Z,4.10
2023-05-10T10:43:44.125Z,4.40
2023-05-10T10:44:45.032Z,4.40
2023-05-10T10:45:44.116Z,4.90
2023-05-10T10:46:44.107Z,2.90
2023-05-10T10:47:44.193Z,3.60
2023-05-10T10:48:44.038Z,3.60
2023-05-10T10:49:44.046Z,3.30
2023-05-10T10:50:44.965Z,2.60
2023-05-10T10:51:44.035Z,3.90
2023-05-10T10:52:44.076Z,1.80
2023-05-10T10:53:44.001Z,1.50
2023-05-10T10:54:44.066Z,2.70
2023-05-10T10:55:43.982Z,2.80
2023-05-10T10:56:44.894Z,2.50
2023-05-10T10:57:43.977Z,2.50
2023-05-10T10:58:43.990Z,4.60
2023-05-10T10:59:44.131Z,1.50
2023-05-10T11:00:43.975Z,2.70
2023-05-10T11:01:44.841Z,3.20
2023-05-10T11:02:43.955Z,2.20
2023-05-10T11:03:43.913Z,3.80
2023-05-10T11:04:43.974Z,3.50
2023-05-10T11:05:43.959Z,3.00
2023-05-10T11:06:43.892Z,1.80
2023-05-10T11:07:44.822Z,3.70
2023-05-10T11:08:43.901Z,4.00
2023-05-10T11:09:43.836Z,3.00
2023-05-10T11:10:43.896Z,1.50
2023-05-10T11:11:43.952Z,2.40
2023-05-10T11:12:44.749Z,4.10
2023-05-10T11:13:43.850Z,3.00
2023-05-10T11:14:43.886Z,3.40
2023-05-10T11:15:43.814Z,4.20
2023-05-10T11:16:43.883Z,2.50
2023-05-10T11:17:44.873Z,2.90
2023-05-10T11:18:43.798Z,3.10
2023-05-10T11:19:44.430Z,3.00
2023-05-10T11:20:43.806Z,1.70
2023-05-10T11:21:43.789Z,2.70
2023-05-10T11:22:44.735Z,3.20
2023-05-10T11:23:43.703Z,2.50
2023-05-10T11:24:43.750Z,1.80
2023-05-10T11:25:43.716Z,3.60
2023-05-10T11:26:43.732Z,2.10
2023-05-10T11:27:44.614Z,3.20
2023-05-10T11:28:43.632Z,1.40
2023-05-10T11:29:43.614Z,1.50
2023-05-10T11:30:43.654Z,1.80
2023-05-10T11:31:43.657Z,3.00
2023-05-10T11:32:43.680Z,1.50
2023-05-10T11:33:44.564Z,4.40
2023-05-10T11:34:43.592Z,2.80
2023-05-10T11:35:43.920Z,4.40
2023-05-10T11:36:43.603Z,2.40
2023-05-10T11:37:43.545Z,2.40
2023-05-10T11:38:43.613Z,1.80
2023-05-10T11:39:44.488Z,4.00
2023-05-10T11:40:43.594Z,2.80
2023-05-10T11:41:43.530Z,2.30
2023-05-10T11:42:43.539Z,3.30
2023-05-10T11:43:43.525Z,1.90
2023-05-10T11:44:44.576Z,3.40
2023-05-10T11:45:43.509Z,3.80
2023-05-10T11:46:43.556Z,3.20
2023-05-10T11:47:43.497Z,1.30
2023-05-10T11:48:43.454Z,5.30
2023-05-10T11:49:44.426Z,3.70
2023-05-10T11:50:43.492Z,4.70
2023-05-10T11:51:43.463Z,2.60
2023-05-10T11:52:43.461Z,3.50
2023-05-10T11:53:43.472Z,2.50
2023-05-10T11:54:43.586Z,2.70
2023-05-10T11:55:44.363Z,2.80
2023-05-10T11:56:43.466Z,5.20
2023-05-10T11:57:43.432Z,1.30
2023-05-10T11:58:43.391Z,1.90
2023-05-10T11:59:43.458Z,4.70
2023-05-10T12:00:44.297Z,2.10
2023-05-10T12:01:43.335Z,1.40
2023-05-10T12:02:43.468Z,1.40
2023-05-10T12:03:43.430Z,4.20
2023-05-10T12:04:43.446Z,2.80
2023-05-10T12:05:43.301Z,1.50
2023-05-10T12:06:44.248Z,4.80
2023-05-10T12:07:43.329Z,2.60
2023-05-10T12:08:43.352Z,1.20
2023-05-10T12:09:44.328Z,1.80
2023-05-10T12:10:43.289Z,1.00
2023-05-10T12:11:44.720Z,2.20
2023-05-10T12:12:43.280Z,3.50
2023-05-10T12:13:43.246Z,2.30
2023-05-10T12:14:43.236Z,3.20
2023-05-10T12:15:43.262Z,3.40
2023-05-10T12:16:44.233Z,3.60
2023-05-10T12:17:43.532Z,3.30
2023-05-10T12:18:43.231Z,3.20
2023-05-10T12:19:43.177Z,4.10
2023-05-10T12:20:43.190Z,1.10
2023-05-10T12:21:44.122Z,3.60
2023-05-10T12:22:43.164Z,2.70
2023-05-10T12:23:43.153Z,4.40
2023-05-10T12:24:43.135Z,3.40
2023-05-10T12:25:43.166Z,2.40
2023-05-10T12:26:44.080Z,1.70
2023-05-10T12:27:43.106Z,3.50
2023-05-10T12:28:43.116Z,4.40
2023-05-10T12:29:43.149Z,3.00
2023-05-10T12:30:43.107Z,2.80
2023-05-10T12:31:43.141Z,1.50
2023-05-10T12:32:44.035Z,2.20
2023-05-10T12:33:43.052Z,2.90
2023-05-10T12:34:43.096Z,2.20
2023-05-10T12:35:43.210Z,2.00
2023-05-10T12:36:43.037Z,1.90
2023-05-10T12:37:43.069Z,4.30
2023-05-10T12:38:44.037Z,1.80
2023-05-10T12:39:43.062Z,1.30
2023-05-10T12:40:43.190Z,1.50
2023-05-10T12:41:43.694Z,1.70
2023-05-10T12:42:43.136Z,2.60
2023-05-10T12:43:43.019Z,2.00
2023-05-10T12:44:43.908Z,2.00
2023-05-10T12:45:43.049Z,1.30
2023-05-10T12:46:42.953Z,2.80
2023-05-10T12:47:44.153Z,3.00
2023-05-10T12:48:43.001Z,3.50
2023-05-10T12:49:43.868Z,1.30
2023-05-10T12:50:42.939Z,3.30
2023-05-10T12:51:42.960Z,1.70
2023-05-10T12:52:42.911Z,1.40
2023-05-10T12:53:45.622Z,2.10
2023-05-10T12:54:42.917Z,2.10
2023-05-10T12:55:43.814Z,2.50
2023-05-10T12:56:42.940Z,3.30
2023-05-10T12:57:42.896Z,2.30
2023-05-10T12:58:42.887Z,6.30
2023-05-10T12:59:42.876Z,2.80
2023-05-10T13:00:42.884Z,2.90
2023-05-10T13:01:43.828Z,2.50
2023-05-10T13:02:42.871Z,1.60
2023-05-10T13:03:42.837Z,1.90
2023-05-10T13:04:42.874Z,3.50
2023-05-10T13:05:42.835Z,1.70
2023-05-10T13:06:42.808Z,2.20
2023-05-10T13:07:43.718Z,2.60
2023-05-10T13:08:42.806Z,2.10
2023-05-10T13:09:42.798Z,2.30
2023-05-10T13:10:42.770Z,2.00
2023-05-10T13:11:42.827Z,1.20
2023-05-10T13:12:42.769Z,2.60
2023-05-10T13:13:43.692Z,4.10
2023-05-10T13:14:42.750Z,2.10
2023-05-10T13:15:42.723Z,1.50
2023-05-10T13:16:42.752Z,2.70
2023-05-10T13:17:42.721Z,3.30
2023-05-10T13:18:42.752Z,5.40